createdAt,value
2017-08-02T00:00:57.408Z,19.29
2017-08-02T00:01:58.851Z,19.23
2017-08-02T00:03:00.276Z,19.06
2017-08-02T00:04:01.699Z,19.13
2017-08-02T00:05:03.125Z,19.17
2017-08-02T00:06:04.555Z,19.39
2017-08-02T00:07:05.984Z,19.43
2017-08-02T00:08:07.410Z,19.57
2017-08-02T00:09:08.834Z,19.75
2017-08-02T00:10:10.258Z,19.68
2017-08-02T00:11:11.684Z,19.73
2017-08-02T00:12:13.106Z,19.70
2017-08-02T00:13:14.540Z,19.75
2017-08-02T00:14:15.971Z,19.47
2017-08-02T00:15:17.395Z,19.31
2017-08-02T00:16:18.831Z,19.18
2017-08-02T00:17:20.254Z,19.21
2017-08-02T00:18:21.693Z,19.17
2017-08-02T00:19:23.123Z,19.14
2017-08-02T00:20:24.538Z,19.10
2017-08-02T00:21:25.966Z,19.20
2017-08-02T00:22:27.391Z,19.43
2017-08-02T00:23:28.818Z,19.55
2017-08-02T00:24:30.240Z,19.50
2017-08-02T00:25:31.660Z,19.63
2017-08-02T00:26:33.093Z,19.54
2017-08-02T00:27:34.524Z,19.53
2017-08-02T00:28:35.942Z,19.61
2017-08-02T00:29:37.369Z,19.50
2017-08-02T00:30:38.801Z,19.10
2017-08-02T00:31:40.228Z,19.05
2017-08-02T00:32:41.655Z,18.82
2017-08-02T00:33:43.081Z,18.91
2017-08-02T00:34:44.505Z,18.99
2017-08-02T00:35:45.931Z,18.94
2017-08-02T00:36:47.354Z,18.95
2017-08-02T00:37:48.779Z,18.97
2017-08-02T00:38:50.215Z,18.95
2017-08-02T00:39:51.638Z,19.13
2017-08-02T00:40:53.057Z,19.35
2017-08-02T00:41:54.487Z,19.39
2017-08-02T00:42:55.924Z,19.31
2017-08-02T00:43:57.349Z,19.13
2017-08-02T00:44:58.771Z,19.20
2017-08-02T00:46:00.197Z,19.02
2017-08-02T00:47:01.624Z,19.06
2017-08-02T00:48:03.053Z,18.95
2017-08-02T00:49:04.608Z,18.98
2017-08-02T00:50:06.041Z,18.92
2017-08-02T00:51:07.467Z,19.01
2017-08-02T00:52:08.905Z,18.94
2017-08-02T00:53:10.376Z,18.94
2017-08-02T00:54:11.795Z,18.84
2017-08-02T00:55:13.224Z,19.01
2017-08-02T00:56:14.742Z,19.05
2017-08-02T00:57:16.169Z,18.86
2017-08-02T00:58:17.590Z,18.54
2017-08-02T00:59:19.025Z,18.55
2017-08-02T01:00:20.503Z,18.40
2017-08-02T01:01:21.930Z,18.44
2017-08-02T01:02:23.354Z,18.50
2017-08-02T01:03:24.822Z,18.62
2017-08-02T01:04:26.251Z,18.73
2017-08-02T01:05:27.673Z,18.77
2017-08-02T01:06:29.104Z,18.59
2017-08-02T01:07:30.627Z,18.58
2017-08-02T01:08:32.060Z,18.62
2017-08-02T01:09:33.486Z,18.68
2017-08-02T01:10:34.919Z,18.70
2017-08-02T01:11:36.351Z,18.54
2017-08-02T01:12:37.782Z,18.49
2017-08-02T01:13:39.211Z,18.39
2017-08-02T01:14:40.636Z,18.57
2017-08-02T01:15:42.065Z,18.74
2017-08-02T01:16:43.481Z,18.87
2017-08-02T01:17:44.909Z,18.94
2017-08-02T01:18:46.332Z,18.79
2017-08-02T01:19:47.760Z,18.95
2017-08-02T01:20:49.187Z,19.08
2017-08-02T01:21:50.610Z,19.01
2017-08-02T01:22:52.035Z,19.08
2017-08-02T01:23:53.467Z,18.94
2017-08-02T01:24:54.894Z,18.98
2017-08-02T01:25:56.323Z,19.08
2017-08-02T01:26:57.771Z,18.90
2017-08-02T01:27:59.166Z,18.90
2017-08-02T01:29:00.589Z,18.86
2017-08-02T01:30:02.016Z,18.50
2017-08-02T01:31:03.444Z,18.62
2017-08-02T01:32:04.877Z,18.68
2017-08-02T01:33:06.313Z,18.65
2017-08-02T01:34:07.735Z,18.64
2017-08-02T01:35:09.166Z,18.79
2017-08-02T01:36:10.591Z,18.76
2017-08-02T01:37:12.020Z,18.76
2017-08-02T01:38:13.441Z,18.92
2017-08-02T01:39:14.869Z,18.92
2017-08-02T01:40:16.290Z,18.92
2017-08-02T01:41:17.717Z,18.90
2017-08-02T01:42:19.145Z,18.87
2017-08-02T01:43:20.565Z,18.84
2017-08-02T01:44:21.987Z,18.67
2017-08-02T01:45:23.407Z,18.64
2017-08-02T01:46:24.833Z,18.61
2017-08-02T01:47:26.262Z,18.59
2017-08-02T01:48:27.687Z,18.47
2017-08-02T01:49:29.121Z,18.65
2017-08-02T01:50:30.535Z,18.65
2017-08-02T01:51:31.959Z,18.65
2017-08-02T01:52:33.386Z,18.50
2017-08-02T01:53:34.809Z,18.62
2017-08-02T01:54:37.010Z,18.77
2017-08-02T01:55:38.446Z,18.54
2017-08-02T01:56:39.869Z,18.52
2017-08-02T01:57:41.298Z,18.64
2017-08-02T01:58:42.795Z,18.42
2017-08-02T01:59:44.236Z,18.44
2017-08-02T02:00:45.664Z,18.59
2017-08-02T02:01:47.090Z,18.67
2017-08-02T02:02:48.521Z,18.61
2017-08-02T02:03:50.037Z,18.72
2017-08-02T02:04:51.456Z,18.79
2017-08-02T02:05:52.883Z,18.86
2017-08-02T02:06:54.317Z,18.94
2017-08-02T02:07:55.732Z,18.92
2017-08-02T02:08:57.149Z,18.95
2017-08-02T02:09:58.581Z,19.11
2017-08-02T02:11:00.105Z,19.18
2017-08-02T02:12:01.525Z,19.38
2017-08-02T02:13:02.948Z,19.40
2017-08-02T02:14:04.397Z,19.39
2017-08-02T02:15:05.822Z,19.40
2017-08-02T02:16:07.254Z,19.21
2017-08-02T02:17:08.689Z,18.95
2017-08-02T02:18:10.160Z,18.86
2017-08-02T02:19:11.585Z,18.77
2017-08-02T02:20:13.010Z,18.83
2017-08-02T02:21:14.443Z,18.70
2017-08-02T02:22:15.876Z,18.67
2017-08-02T02:23:17.299Z,18.73
2017-08-02T02:24:18.718Z,18.62
2017-08-02T02:25:20.141Z,18.67
2017-08-02T02:26:21.568Z,18.68
2017-08-02T02:27:23.002Z,18.80
2017-08-02T02:28:24.441Z,18.84
2017-08-02T02:29:25.863Z,18.84
2017-08-02T02:30:27.294Z,18.94
2017-08-02T02:31:28.712Z,18.97
2017-08-02T02:32:30.133Z,18.95
2017-08-02T02:33:31.558Z,18.94
2017-08-02T02:34:32.980Z,19.08
2017-08-02T02:35:34.408Z,19.11
2017-08-02T02:36:35.843Z,19.36
2017-08-02T02:37:37.270Z,19.31
2017-08-02T02:38:38.696Z,19.39
2017-08-02T02:39:40.122Z,19.47
2017-08-02T02:40:41.545Z,19.28
2017-08-02T02:41:42.966Z,19.40
2017-08-02T02:42:44.392Z,19.28
2017-08-02T02:43:45.817Z,19.17
2017-08-02T02:44:47.248Z,18.94
2017-08-02T02:45:48.677Z,19.08
2017-08-02T02:46:50.097Z,18.87
2017-08-02T02:47:51.521Z,18.95
2017-08-02T02:48:52.942Z,18.59
2017-08-02T02:49:54.378Z,18.80
2017-08-02T02:50:55.798Z,18.74
2017-08-02T02:51:57.223Z,18.64
2017-08-02T02:52:58.646Z,18.80
2017-08-02T02:54:00.070Z,18.92
2017-08-02T02:55:01.490Z,19.01
2017-08-02T02:56:02.918Z,19.02
2017-08-02T02:57:04.340Z,19.01
2017-08-02T02:58:05.772Z,18.68
2017-08-02T02:59:07.201Z,18.42
2017-08-02T03:00:08.620Z,18.54
2017-08-02T03:01:10.040Z,18.42
2017-08-02T03:02:11.464Z,18.22
2017-08-02T03:03:12.892Z,18.34
2017-08-02T03:04:14.321Z,18.12
2017-08-02T03:05:15.752Z,18.03
2017-08-02T03:06:17.172Z,17.88
2017-08-02T03:07:18.618Z,17.88
2017-08-02T03:08:20.040Z,17.87
2017-08-02T03:09:21.461Z,18.07
2017-08-02T03:10:22.908Z,18.13
2017-08-02T03:11:24.321Z,18.37
2017-08-02T03:12:25.744Z,18.50
2017-08-02T03:13:27.168Z,18.65
2017-08-02T03:14:28.717Z,18.64
2017-08-02T03:15:30.149Z,18.43
2017-08-02T03:16:31.567Z,18.36
2017-08-02T03:17:32.996Z,18.44
2017-08-02T03:18:34.421Z,18.42
2017-08-02T03:19:35.842Z,18.34
2017-08-02T03:20:37.266Z,18.21
2017-08-02T03:21:38.696Z,17.99
2017-08-02T03:22:40.126Z,17.95
2017-08-02T03:23:41.548Z,17.89
2017-08-02T03:24:42.968Z,18.07
2017-08-02T03:25:44.395Z,18.04
2017-08-02T03:26:45.820Z,17.97
2017-08-02T03:27:47.244Z,18.06
2017-08-02T03:28:48.666Z,18.21
2017-08-02T03:29:50.091Z,18.44
2017-08-02T03:30:51.535Z,18.61
2017-08-02T03:31:52.950Z,18.49
2017-08-02T03:32:54.374Z,18.62
2017-08-02T03:33:55.802Z,18.47
2017-08-02T03:34:57.221Z,18.64
2017-08-02T03:35:58.645Z,18.55
2017-08-02T03:37:00.068Z,18.34
2017-08-02T03:38:01.502Z,18.17
2017-08-02T03:39:02.930Z,18.17
2017-08-02T03:40:04.362Z,18.25
2017-08-02T03:41:06.451Z,18.42
2017-08-02T03:42:07.880Z,18.34
2017-08-02T03:43:09.296Z,18.44
2017-08-02T03:44:10.728Z,18.54
2017-08-02T03:45:12.156Z,18.57
2017-08-02T03:46:13.587Z,18.82
2017-08-02T03:47:15.007Z,18.86
2017-08-02T03:48:16.433Z,18.84
2017-08-02T03:49:17.860Z,18.86
2017-08-02T03:50:19.283Z,18.91
2017-08-02T03:51:20.708Z,18.91
2017-08-02T03:52:22.132Z,18.95
2017-08-02T03:53:23.559Z,18.98
2017-08-02T03:54:24.989Z,18.99
2017-08-02T03:55:26.462Z,18.94
2017-08-02T03:56:27.888Z,18.92
2017-08-02T03:57:29.319Z,18.99
2017-08-02T03:58:30.744Z,19.13
2017-08-02T03:59:32.186Z,19.14
2017-08-02T04:00:33.608Z,19.06
2017-08-02T04:01:35.030Z,19.01
2017-08-02T04:02:36.462Z,19.06
2017-08-02T04:03:38.001Z,18.90
2017-08-02T04:04:40.250Z,19.05
2017-08-02T04:05:41.678Z,18.91
2017-08-02T04:06:43.105Z,18.84
2017-08-02T04:07:44.537Z,18.54
2017-08-02T04:08:45.959Z,18.54
2017-08-02T04:09:47.383Z,18.29
2017-08-02T04:10:48.806Z,18.12
2017-08-02T04:11:50.237Z,17.97
2017-08-02T04:12:51.662Z,18.03
2017-08-02T04:13:53.088Z,17.94
2017-08-02T04:14:54.508Z,17.95
2017-08-02T04:15:55.934Z,18.02
2017-08-02T04:16:57.372Z,18.37
2017-08-02T04:17:58.788Z,18.54
2017-08-02T04:19:00.212Z,18.50
2017-08-02T04:20:01.638Z,18.39
2017-08-02T04:21:03.069Z,18.46
2017-08-02T04:22:04.501Z,18.42
2017-08-02T04:23:05.923Z,18.49
2017-08-02T04:24:07.352Z,18.24
2017-08-02T04:25:08.782Z,18.47
2017-08-02T04:26:10.209Z,18.40
2017-08-02T04:27:11.638Z,18.37
2017-08-02T04:28:13.060Z,18.42
2017-08-02T04:29:14.491Z,18.39
2017-08-02T04:30:15.924Z,18.37
2017-08-02T04:31:17.350Z,18.37
2017-08-02T04:32:18.777Z,18.42
2017-08-02T04:33:20.212Z,18.44
2017-08-02T04:34:21.645Z,18.37
2017-08-02T04:35:23.081Z,18.39
2017-08-02T04:36:24.509Z,18.40
2017-08-02T04:37:25.936Z,18.42
2017-08-02T04:38:27.361Z,18.54
2017-08-02T04:39:28.786Z,18.59
2017-08-02T04:40:30.313Z,18.49
2017-08-02T04:41:31.742Z,18.57
2017-08-02T04:42:33.180Z,18.58
2017-08-02T04:43:34.611Z,18.64
2017-08-02T04:44:36.038Z,18.54
2017-08-02T04:45:37.468Z,18.54
2017-08-02T04:46:38.893Z,18.65
2017-08-02T04:47:40.327Z,18.76
2017-08-02T04:48:41.751Z,18.86
2017-08-02T04:49:43.184Z,18.62
2017-08-02T04:50:44.622Z,18.86
2017-08-02T04:51:46.050Z,19.08
2017-08-02T04:52:47.509Z,19.01
2017-08-02T04:53:48.913Z,18.92
2017-08-02T04:54:50.342Z,18.99
2017-08-02T04:55:51.761Z,18.90
2017-08-02T04:56:53.196Z,18.95
2017-08-02T04:57:54.635Z,18.94
2017-08-02T04:58:56.059Z,18.87
2017-08-02T04:59:57.489Z,18.82
2017-08-02T05:00:58.918Z,18.87
2017-08-02T05:02:00.347Z,18.77
2017-08-02T05:03:01.801Z,18.82
2017-08-02T05:04:03.210Z,18.99
2017-08-02T05:05:04.638Z,18.86
2017-08-02T05:06:06.073Z,19.13
2017-08-02T05:07:07.502Z,19.18
2017-08-02T05:08:08.928Z,19.15
2017-08-02T05:09:10.360Z,19.13
2017-08-02T05:10:11.791Z,19.11
2017-08-02T05:11:13.223Z,19.13
2017-08-02T05:12:14.659Z,19.20
2017-08-02T05:13:16.078Z,19.18
2017-08-02T05:14:17.527Z,19.25
2017-08-02T05:15:18.945Z,19.20
2017-08-02T05:16:20.374Z,19.29
2017-08-02T05:17:21.800Z,19.39
2017-08-02T05:18:23.229Z,19.42
2017-08-02T05:19:24.664Z,19.39
2017-08-02T05:20:26.092Z,19.23
2017-08-02T05:21:27.524Z,19.39
2017-08-02T05:22:28.953Z,19.48
2017-08-02T05:23:30.379Z,19.57
2017-08-02T05:24:31.810Z,19.72
2017-08-02T05:25:33.241Z,19.55
2017-08-02T05:26:34.667Z,19.46
2017-08-02T05:27:36.108Z,19.50
2017-08-02T05:28:37.534Z,19.51
2017-08-02T05:29:38.962Z,19.53
2017-08-02T05:30:40.385Z,19.50
2017-08-02T05:31:41.808Z,19.58
2017-08-02T05:32:43.253Z,19.53
2017-08-02T05:33:44.680Z,19.51
2017-08-02T05:34:46.109Z,19.35
2017-08-02T05:35:47.543Z,19.32
2017-08-02T05:36:48.972Z,19.53
2017-08-02T05:37:50.402Z,19.68
2017-08-02T05:38:51.831Z,19.73
2017-08-02T05:39:53.263Z,19.69
2017-08-02T05:40:54.692Z,19.68
2017-08-02T05:41:56.125Z,19.66
2017-08-02T05:42:57.557Z,19.94
2017-08-02T05:43:58.979Z,20.05
2017-08-02T05:45:00.407Z,20.03
2017-08-02T05:46:01.834Z,20.03
2017-08-02T05:47:03.265Z,20.09
2017-08-02T05:48:04.691Z,20.09
2017-08-02T05:49:06.121Z,19.94
2017-08-02T05:50:07.559Z,20.05
2017-08-02T05:51:08.983Z,20.09
2017-08-02T05:52:10.411Z,20.10
2017-08-02T05:53:11.844Z,20.09
2017-08-02T05:54:13.280Z,19.95
2017-08-02T05:55:14.698Z,20.06
2017-08-02T05:56:16.129Z,20.02
2017-08-02T05:57:17.560Z,19.95
2017-08-02T05:58:18.985Z,19.97
2017-08-02T05:59:20.417Z,19.95
2017-08-02T06:00:21.850Z,20.02
2017-08-02T06:01:23.278Z,20.10
2017-08-02T06:02:24.708Z,20.06
2017-08-02T06:03:26.130Z,20.15
2017-08-02T06:04:27.556Z,20.24
2017-08-02T06:05:28.982Z,20.30
2017-08-02T06:06:30.418Z,20.18
2017-08-02T06:07:31.851Z,20.18
2017-08-02T06:08:33.273Z,20.10
2017-08-02T06:09:34.705Z,20.02
2017-08-02T06:10:36.130Z,20.03
2017-08-02T06:11:37.562Z,20.20
2017-08-02T06:12:38.990Z,20.21
2017-08-02T06:13:40.421Z,20.24
2017-08-02T06:14:41.853Z,20.21
2017-08-02T06:15:43.284Z,20.20
2017-08-02T06:16:44.723Z,20.28
2017-08-02T06:17:46.154Z,20.28
2017-08-02T06:18:47.583Z,20.24
2017-08-02T06:19:49.008Z,20.27
2017-08-02T06:20:50.432Z,20.34
2017-08-02T06:21:51.880Z,20.42
2017-08-02T06:22:53.301Z,20.33
2017-08-02T06:23:54.722Z,20.25
2017-08-02T06:24:56.158Z,20.25
2017-08-02T06:25:57.593Z,20.24
2017-08-02T06:26:59.019Z,20.21
2017-08-02T06:28:00.459Z,20.30
2017-08-02T06:29:01.899Z,20.13
2017-08-02T06:30:03.334Z,19.93
2017-08-02T06:31:04.764Z,19.84
2017-08-02T06:32:06.191Z,20.02
2017-08-02T06:33:07.623Z,19.88
2017-08-02T06:34:09.062Z,20.03
2017-08-02T06:35:10.489Z,20.03
2017-08-02T06:36:11.929Z,20.16
2017-08-02T06:37:13.359Z,20.06
2017-08-02T06:38:14.814Z,20.06
2017-08-02T06:39:16.225Z,19.98
2017-08-02T06:40:17.650Z,19.98
2017-08-02T06:41:19.073Z,20.06
2017-08-02T06:42:20.506Z,20.25
2017-08-02T06:43:21.943Z,20.31
2017-08-02T06:44:23.367Z,20.34
2017-08-02T06:45:24.790Z,20.27
2017-08-02T06:46:26.221Z,20.41
2017-08-02T06:47:27.676Z,20.41
2017-08-02T06:48:29.112Z,20.61
2017-08-02T06:49:30.541Z,20.56
2017-08-02T06:50:31.971Z,20.77
2017-08-02T06:51:33.398Z,20.86
2017-08-02T06:52:34.827Z,20.96
2017-08-02T06:53:36.277Z,20.81
2017-08-02T06:54:37.709Z,20.65
2017-08-02T06:55:39.145Z,20.81
2017-08-02T06:56:40.645Z,20.81
2017-08-02T06:57:42.060Z,20.95
2017-08-02T06:58:43.501Z,20.83
2017-08-02T06:59:46.932Z,20.83
2017-08-02T07:00:48.864Z,20.69
2017-08-02T07:01:50.396Z,20.83
2017-08-02T07:02:52.203Z,20.91
2017-08-02T07:03:53.881Z,20.98
2017-08-02T07:04:55.567Z,20.99
2017-08-02T07:05:57.489Z,21.08
2017-08-02T07:06:58.914Z,21.06
2017-08-02T07:08:00.357Z,20.99
2017-08-02T07:09:01.782Z,21.17
2017-08-02T07:10:03.212Z,21.13
2017-08-02T07:11:04.648Z,21.09
2017-08-02T07:12:06.075Z,21.13
2017-08-02T07:13:07.507Z,21.17
2017-08-02T07:14:08.930Z,21.04
2017-08-02T07:15:10.364Z,21.26
2017-08-02T07:16:11.793Z,21.41
2017-08-02T07:17:13.225Z,21.44
2017-08-02T07:18:14.666Z,21.26
2017-08-02T07:19:16.096Z,21.29
2017-08-02T07:20:17.531Z,21.36
2017-08-02T07:21:18.958Z,21.45
2017-08-02T07:22:20.394Z,21.36
2017-08-02T07:23:21.823Z,21.44
2017-08-02T07:24:23.262Z,21.57
2017-08-02T07:25:24.686Z,21.67
2017-08-02T07:26:26.121Z,21.75
2017-08-02T07:27:27.559Z,21.71
2017-08-02T07:28:28.987Z,21.87
2017-08-02T07:29:30.425Z,21.92
2017-08-02T07:30:31.851Z,21.92
2017-08-02T07:31:33.286Z,21.59
2017-08-02T07:32:34.712Z,21.57
2017-08-02T07:33:36.147Z,21.60
2017-08-02T07:34:37.572Z,21.61
2017-08-02T07:35:39.007Z,21.54
2017-08-02T07:36:40.438Z,21.50
2017-08-02T07:37:41.876Z,21.50
2017-08-02T07:38:43.317Z,21.69
2017-08-02T07:39:44.746Z,21.69
2017-08-02T07:40:46.177Z,21.74
2017-08-02T07:41:47.604Z,21.90
2017-08-02T07:42:49.038Z,21.97
2017-08-02T07:43:50.466Z,22.06
2017-08-02T07:44:51.895Z,22.16
2017-08-02T07:45:53.327Z,22.20
2017-08-02T07:46:54.834Z,22.31
2017-08-02T07:47:56.263Z,22.35
2017-08-02T07:48:57.694Z,22.49
2017-08-02T07:49:59.135Z,22.43
2017-08-02T07:51:00.559Z,22.41
2017-08-02T07:52:02.004Z,22.41
2017-08-02T07:53:03.431Z,22.44
2017-08-02T07:54:04.864Z,22.56
2017-08-02T07:55:06.308Z,22.50
2017-08-02T07:56:07.734Z,22.47
2017-08-02T07:57:09.172Z,22.50
2017-08-02T07:58:10.606Z,22.53
2017-08-02T07:59:12.049Z,22.74
2017-08-02T08:00:13.487Z,22.86
2017-08-02T08:01:14.923Z,22.89
2017-08-02T08:02:16.359Z,22.90
2017-08-02T08:03:17.794Z,23.08
2017-08-02T08:04:19.224Z,23.31
2017-08-02T08:05:20.660Z,23.50
2017-08-02T08:06:22.114Z,23.49
2017-08-02T08:07:23.532Z,23.32
2017-08-02T08:08:24.975Z,23.52
2017-08-02T08:09:26.406Z,23.64
2017-08-02T08:10:27.891Z,23.65
2017-08-02T08:11:29.329Z,23.75
2017-08-02T08:12:30.767Z,23.77
2017-08-02T08:13:32.310Z,23.79
2017-08-02T08:14:33.741Z,23.67
2017-08-02T08:15:35.185Z,23.72
2017-08-02T08:16:36.617Z,23.62
2017-08-02T08:17:38.058Z,23.70
2017-08-02T08:18:39.499Z,23.65
2017-08-02T08:19:40.924Z,23.65
2017-08-02T08:20:42.374Z,23.72
2017-08-02T08:21:43.823Z,23.72
2017-08-02T08:22:45.258Z,23.75
2017-08-02T08:23:46.697Z,23.71
2017-08-02T08:24:48.137Z,23.68
2017-08-02T08:25:49.571Z,23.67
2017-08-02T08:26:51.007Z,23.65
2017-08-02T08:27:52.444Z,23.77
2017-08-02T08:28:53.886Z,23.80
2017-08-02T08:29:55.317Z,23.77
2017-08-02T08:30:56.766Z,23.68
2017-08-02T08:31:58.204Z,23.50
2017-08-02T08:32:59.638Z,23.60
2017-08-02T08:34:01.075Z,23.50
2017-08-02T08:35:02.597Z,23.64
2017-08-02T08:36:04.025Z,23.50
2017-08-02T08:37:05.460Z,23.72
2017-08-02T08:38:06.900Z,23.76
2017-08-02T08:39:08.330Z,23.75
2017-08-02T08:40:09.763Z,23.70
2017-08-02T08:41:11.211Z,23.64
2017-08-02T08:42:12.633Z,23.68
2017-08-02T08:43:14.142Z,23.62
2017-08-02T08:44:15.587Z,23.62
2017-08-02T08:45:17.017Z,23.57
2017-08-02T08:46:18.456Z,23.65
2017-08-02T08:47:19.903Z,23.75
2017-08-02T08:48:21.338Z,23.70
2017-08-02T08:49:22.780Z,23.86
2017-08-02T08:50:24.215Z,24.01
2017-08-02T08:51:25.641Z,24.01
2017-08-02T08:52:27.078Z,24.00
2017-08-02T08:53:28.505Z,24.10
2017-08-02T08:54:29.937Z,24.23
2017-08-02T08:55:31.367Z,24.26
2017-08-02T08:56:32.805Z,24.10
2017-08-02T08:57:34.229Z,24.07
2017-08-02T08:58:35.661Z,23.85
2017-08-02T08:59:37.103Z,23.60
2017-08-02T09:00:38.562Z,23.62
2017-08-02T09:01:39.982Z,24.13
2017-08-02T09:02:41.420Z,23.89
2017-08-02T09:03:42.875Z,24.00
2017-08-02T09:04:44.311Z,23.72
2017-08-02T09:05:45.749Z,23.85
2017-08-02T09:06:47.185Z,23.87
2017-08-02T09:07:48.614Z,23.89
2017-08-02T09:08:50.055Z,23.92
2017-08-02T09:09:51.489Z,24.02
2017-08-02T09:10:52.929Z,23.98
2017-08-02T09:11:54.370Z,24.10
2017-08-02T09:12:55.799Z,24.61
2017-08-02T09:13:57.246Z,24.63
2017-08-02T09:14:59.033Z,24.57
2017-08-02T09:16:00.467Z,24.53
2017-08-02T09:17:01.902Z,24.52
2017-08-02T09:18:03.336Z,24.50
2017-08-02T09:19:04.766Z,24.47
2017-08-02T09:20:06.211Z,24.56
2017-08-02T09:21:07.649Z,24.07
2017-08-02T09:22:09.080Z,24.02
2017-08-02T09:23:10.514Z,23.65
2017-08-02T09:24:11.951Z,23.62
2017-08-02T09:25:13.387Z,23.50
2017-08-02T09:26:14.824Z,23.47
2017-08-02T09:27:17.099Z,23.49
2017-08-02T09:28:18.532Z,23.45
2017-08-02T09:29:19.973Z,23.53
2017-08-02T09:30:21.405Z,23.52
2017-08-02T09:31:22.838Z,23.38
2017-08-02T09:32:24.283Z,23.27
2017-08-02T09:33:25.736Z,23.47
2017-08-02T09:34:27.173Z,23.52
2017-08-02T09:35:28.598Z,23.55
2017-08-02T09:36:30.033Z,23.76
2017-08-02T09:37:31.468Z,23.77
2017-08-02T09:38:33.712Z,23.86
2017-08-02T09:39:35.153Z,24.17
2017-08-02T09:40:36.583Z,24.52
2017-08-02T09:41:38.023Z,24.63
2017-08-02T09:42:39.467Z,24.67
2017-08-02T09:43:40.900Z,25.31
2017-08-02T09:44:42.344Z,25.22
2017-08-02T09:45:43.790Z,25.09
2017-08-02T09:46:45.222Z,25.71
2017-08-02T09:47:46.658Z,25.56
2017-08-02T09:48:48.089Z,25.71
2017-08-02T09:49:49.522Z,25.50
2017-08-02T09:50:50.963Z,25.54
2017-08-02T09:51:52.394Z,25.61
2017-08-02T09:52:53.840Z,25.49
2017-08-02T09:53:55.277Z,25.31
2017-08-02T09:54:56.715Z,25.38
2017-08-02T09:55:58.156Z,25.61
2017-08-02T09:56:59.586Z,25.54
2017-08-02T09:58:01.775Z,25.00
2017-08-02T09:59:03.226Z,25.02
2017-08-02T10:00:04.655Z,25.47
2017-08-02T10:01:06.094Z,25.57
2017-08-02T10:02:07.530Z,25.62
2017-08-02T10:03:10.536Z,25.71
2017-08-02T10:04:11.957Z,25.77
2017-08-02T10:05:13.393Z,26.12
2017-08-02T10:06:14.836Z,25.97
2017-08-02T10:07:16.274Z,25.77
2017-08-02T10:08:17.709Z,25.75
2017-08-02T10:09:19.148Z,25.98
2017-08-02T10:10:20.587Z,26.04
2017-08-02T10:11:22.027Z,25.97
2017-08-02T10:12:23.537Z,25.99
2017-08-02T10:13:24.974Z,26.02
2017-08-02T10:14:26.406Z,25.99
2017-08-02T10:15:27.864Z,25.99
2017-08-02T10:16:29.298Z,25.94
2017-08-02T10:17:31.013Z,25.98
2017-08-02T10:18:32.441Z,26.12
2017-08-02T10:19:33.895Z,25.99
2017-08-02T10:20:35.350Z,26.09
2017-08-02T10:21:36.784Z,26.01
2017-08-02T10:22:38.223Z,25.65
2017-08-02T10:23:39.662Z,25.72
2017-08-02T10:24:41.099Z,25.86
2017-08-02T10:25:42.540Z,25.89
2017-08-02T10:26:43.972Z,26.15
2017-08-02T10:27:45.403Z,26.32
2017-08-02T10:28:46.847Z,26.40
2017-08-02T10:29:48.295Z,26.32
2017-08-02T10:30:49.731Z,26.50
2017-08-02T10:31:51.161Z,26.80
2017-08-02T10:32:52.597Z,26.89
2017-08-02T10:33:54.045Z,26.50
2017-08-02T10:34:55.481Z,26.31
2017-08-02T10:35:56.911Z,25.87
2017-08-02T10:36:58.349Z,26.20
2017-08-02T10:37:59.789Z,26.28
2017-08-02T10:39:01.226Z,26.27
2017-08-02T10:40:02.663Z,26.24
2017-08-02T10:41:04.105Z,26.18
2017-08-02T10:42:05.543Z,25.87
2017-08-02T10:43:06.981Z,25.77
2017-08-02T10:44:08.426Z,25.84
2017-08-02T10:45:09.887Z,25.86
2017-08-02T10:46:11.323Z,25.97
2017-08-02T10:47:12.784Z,26.37
2017-08-02T10:48:14.257Z,26.52
2017-08-02T10:49:15.702Z,26.83
2017-08-02T10:50:17.145Z,26.74
2017-08-02T10:51:18.579Z,26.77
2017-08-02T10:52:20.013Z,26.92
2017-08-02T10:53:21.449Z,27.14
2017-08-02T10:54:22.885Z,26.95
2017-08-02T10:55:24.392Z,26.92
2017-08-02T10:56:25.833Z,26.92
2017-08-02T10:57:27.269Z,27.04
2017-08-02T10:58:28.740Z,26.58
2017-08-02T10:59:30.218Z,26.59
2017-08-02T11:00:31.663Z,26.62
2017-08-02T11:01:33.094Z,26.65
2017-08-02T11:02:34.527Z,26.62
2017-08-02T11:03:35.967Z,26.42
2017-08-02T11:04:37.407Z,26.24
2017-08-02T11:05:38.853Z,26.27
2017-08-02T11:06:40.288Z,26.29
2017-08-02T11:07:41.715Z,26.06
2017-08-02T11:08:43.153Z,26.11
2017-08-02T11:09:44.589Z,26.01
2017-08-02T11:10:46.034Z,26.06
2017-08-02T11:11:47.481Z,26.24
2017-08-02T11:12:48.922Z,26.49
2017-08-02T11:13:50.402Z,26.05
2017-08-02T11:14:51.834Z,26.28
2017-08-02T11:15:53.265Z,26.31
2017-08-02T11:16:54.704Z,26.35
2017-08-02T11:17:56.135Z,26.27
2017-08-02T11:18:57.572Z,26.46
2017-08-02T11:19:59.000Z,26.62
2017-08-02T11:21:00.447Z,26.59
2017-08-02T11:22:01.892Z,26.52
2017-08-02T11:23:03.329Z,26.52
2017-08-02T11:24:04.767Z,26.28
2017-08-02T11:25:06.215Z,25.94
2017-08-02T11:26:07.640Z,26.04
2017-08-02T11:27:09.076Z,25.90
2017-08-02T11:28:10.515Z,26.18
2017-08-02T11:29:12.045Z,26.01
2017-08-02T11:30:13.485Z,26.32
2017-08-02T11:31:14.920Z,26.50
2017-08-02T11:32:16.370Z,26.24
2017-08-02T11:33:17.793Z,26.05
2017-08-02T11:34:19.234Z,26.05
2017-08-02T11:35:20.672Z,26.32
2017-08-02T11:36:22.116Z,26.15
2017-08-02T11:37:23.547Z,26.31
2017-08-02T11:38:24.993Z,26.31
2017-08-02T11:39:26.497Z,26.17
2017-08-02T11:40:27.929Z,26.05
2017-08-02T11:41:29.361Z,26.31
2017-08-02T11:42:30.804Z,26.43
2017-08-02T11:43:32.249Z,26.46
2017-08-02T11:44:33.685Z,26.35
2017-08-02T11:45:35.120Z,26.54
2017-08-02T11:46:36.573Z,26.39
2017-08-02T11:47:38.010Z,26.36
2017-08-02T11:48:39.452Z,26.25
2017-08-02T11:49:40.906Z,26.47
2017-08-02T11:50:42.391Z,26.68
2017-08-02T11:51:43.825Z,26.72
2017-08-02T11:52:45.261Z,26.95
2017-08-02T11:53:46.743Z,27.06
2017-08-02T11:54:48.182Z,27.09
2017-08-02T11:55:49.623Z,27.10
2017-08-02T11:56:51.058Z,26.73
2017-08-02T11:57:52.494Z,26.84
2017-08-02T11:58:53.939Z,26.89
2017-08-02T11:59:55.378Z,26.79
2017-08-02T12:00:56.814Z,26.52
2017-08-02T12:01:58.251Z,26.61
2017-08-02T12:02:59.685Z,26.65
2017-08-02T12:04:01.122Z,26.86
2017-08-02T12:05:02.597Z,26.84
2017-08-02T12:06:04.054Z,26.89
2017-08-02T12:07:05.489Z,27.50
2017-08-02T12:08:06.932Z,27.53
2017-08-02T12:09:08.371Z,27.76
2017-08-02T12:10:09.810Z,27.53
2017-08-02T12:11:11.274Z,27.50
2017-08-02T12:12:12.713Z,27.50
2017-08-02T12:13:14.174Z,26.99
2017-08-02T12:14:15.608Z,27.01
2017-08-02T12:15:17.048Z,26.87
2017-08-02T12:16:18.490Z,26.54
2017-08-02T12:17:19.923Z,26.22
2017-08-02T12:18:21.370Z,26.17
2017-08-02T12:19:22.815Z,25.90
2017-08-02T12:20:24.259Z,25.86
2017-08-02T12:21:25.699Z,26.01
2017-08-02T12:22:27.132Z,25.99
2017-08-02T12:23:28.576Z,26.01
2017-08-02T12:24:30.033Z,25.99
2017-08-02T12:25:31.485Z,25.99
2017-08-02T12:26:32.923Z,25.97
2017-08-02T12:27:34.364Z,26.01
2017-08-02T12:28:35.789Z,26.01
2017-08-02T12:29:37.221Z,25.90
2017-08-02T12:30:38.665Z,25.89
2017-08-02T12:31:40.106Z,25.94
2017-08-02T12:32:41.538Z,26.15
2017-08-02T12:33:42.974Z,26.29
2017-08-02T12:34:44.438Z,26.46
2017-08-02T12:35:45.877Z,26.61
2017-08-02T12:36:47.305Z,26.55
2017-08-02T12:37:48.744Z,26.47
2017-08-02T12:38:50.189Z,26.37
2017-08-02T12:39:51.630Z,26.40
2017-08-02T12:40:53.066Z,26.29
2017-08-02T12:41:54.503Z,26.27
2017-08-02T12:42:56.008Z,25.91
2017-08-02T12:43:57.450Z,25.84
2017-08-02T12:44:58.888Z,25.65
2017-08-02T12:46:00.352Z,25.72
2017-08-02T12:47:01.783Z,26.15
2017-08-02T12:48:03.222Z,26.17
2017-08-02T12:49:04.653Z,26.49
2017-08-02T12:50:06.172Z,26.54
2017-08-02T12:51:07.616Z,26.84
2017-08-02T12:52:09.042Z,27.17
2017-08-02T12:53:10.500Z,27.05
2017-08-02T12:54:11.944Z,26.98
2017-08-02T12:55:13.398Z,26.87
2017-08-02T12:56:14.840Z,26.57
2017-08-02T12:57:16.279Z,26.27
2017-08-02T12:58:17.715Z,26.28
2017-08-02T12:59:19.157Z,26.35
2017-08-02T13:00:20.596Z,26.29
2017-08-02T13:01:22.033Z,26.55
2017-08-02T13:02:23.473Z,26.77
2017-08-02T13:03:24.910Z,26.20
2017-08-02T13:04:26.359Z,26.20
2017-08-02T13:05:27.793Z,26.25
2017-08-02T13:06:29.240Z,26.32
2017-08-02T13:07:30.756Z,26.18
2017-08-02T13:08:32.203Z,26.31
2017-08-02T13:09:33.638Z,26.18
2017-08-02T13:10:35.077Z,26.20
2017-08-02T13:11:37.145Z,25.98